Time;durP1;ratioP1;P1;durP2;ratioP2;P2;SDS_P1;SDS_P2;PMS_P1;PMS_P2;Temp;Humidity;BMP_temperature;BMP_pressure;BME280_temperature;BME280_humidity;BME280_pressure;Samples;Min_cycle;Max_cycle;Signal;HPM_P1;HPM_P2
2023/10/19 00:00:34;;;;;;;;;;;8.90;99.90;;;;;;4961231;28;19911;-79
2023/10/19 00:03:02;;;;;;;;;;;8.90;99.90;;;;;;4966337;28;19921;-77
2023/10/19 00:05:32;;;;;;;;;;;8.80;99.90;;;;;;4962819;28;20361;-75
2023/10/19 00:08:05;;;;;;;;;;;8.90;99.90;;;;;;4962732;28;20393;-73
2023/10/19 00:10:37;;;;;;;;;;;8.90;99.90;;;;;;4964144;28;19917;-75
2023/10/19 00:13:08;;;;;;;;;;;8.80;99.90;;;;;;4961608;28;19918;-74
2023/10/19 00:15:37;;;;;;;;;;;8.80;99.90;;;;;;4963978;28;19914;-74
2023/10/19 00:23:07;;;;;;;;;;;8.90;99.90;;;;;;4966445;28;20392;-75
2023/10/19 00:25:34;;;;;;;;;;;8.80;99.90;;;;;;4964298;28;19914;-74
2023/10/19 00:28:03;;;;;;;;;;;8.80;99.90;;;;;;4961737;28;19911;-73
2023/10/19 00:30:32;;;;;;;;;;;8.80;99.90;;;;;;4964243;28;19920;-73
2023/10/19 00:33:03;;;;;;;;;;;8.90;99.90;;;;;;4966254;28;19929;-74
2023/10/19 00:35:36;;;;;;;;;;;8.90;99.90;;;;;;4966535;28;19969;-74
2023/10/19 00:40:52;;;;;;;;;;;9.00;99.90;;;;;;4970085;28;20396;-74
2023/10/19 00:43:28;;;;;;;;;;;9.10;99.90;;;;;;4964289;28;20013;-73
2023/10/19 00:45:54;;;;;;;;;;;9.20;99.90;;;;;;4967881;28;19961;-74
2023/10/19 00:48:26;;;;;;;;;;;9.20;99.90;;;;;;4965352;28;20014;-74
2023/10/19 00:50:54;;;;;;;;;;;9.20;99.90;;;;;;4967546;28;19981;-75
2023/10/19 00:53:20;;;;;;;;;;;9.20;99.90;;;;;;4963330;28;19917;-75
2023/10/19 00:55:46;;;;;;;;;;;9.30;99.90;;;;;;4965586;28;19914;-75
2023/10/19 00:58:17;;;;;;;;;;;9.30;99.90;;;;;;4962998;28;19964;-74
2023/10/19 01:00:43;;;;;;;;;;;9.40;99.90;;;;;;4970465;28;19929;-73
2023/10/19 01:03:10;;;;;;;;;;;9.40;99.90;;;;;;4968863;28;20231;-80
2023/10/19 01:05:36;;;;;;;;;;;9.40;99.90;;;;;;4965490;28;19910;-78
2023/10/19 01:08:07;;;;;;;;;;;9.40;99.90;;;;;;4968776;28;19981;-74
2023/10/19 01:10:33;;;;;;;;;;;9.40;99.90;;;;;;4967202;28;20505;-73
2023/10/19 01:12:59;;;;;;;;;;;9.40;99.90;;;;;;4965258;28;19918;-75
2023/10/19 01:17:56;;;;;;;;;;;9.50;99.90;;;;;;4970608;28;20004;-75
2023/10/19 01:20:32;;;;;;;;;;;9.50;99.90;;;;;;4965990;28;21207;-73
2023/10/19 01:25:49;;;;;;;;;;;9.50;99.90;;;;;;4966820;28;19914;-71
2023/10/19 01:28:17;;;;;;;;;;;9.50;99.90;;;;;;4963689;28;19910;-73
2023/10/19 01:30:44;;;;;;;;;;;9.50;99.90;;;;;;4965820;28;20424;-74
2023/10/19 01:33:12;;;;;;;;;;;9.50;99.90;;;;;;4968431;28;19914;-73
2023/10/19 01:38:22;;;;;;;;;;;9.60;99.90;;;;;;4963370;28;20049;-73
2023/10/19 01:40:48;;;;;;;;;;;9.60;99.90;;;;;;4967606;28;20013;-74
2023/10/19 01:43:21;;;;;;;;;;;9.60;99.90;;;;;;4965318;28;19925;-75
2023/10/19 01:45:47;;;;;;;;;;;9.60;99.90;;;;;;4965270;28;20020;-75
2023/10/19 01:48:16;;;;;;;;;;;9.60;99.90;;;;;;4967446;28;20715;-73
2023/10/19 01:50:41;;;;;;;;;;;9.60;99.90;;;;;;4960021;28;20366;-73
2023/10/19 01:53:17;;;;;;;;;;;9.60;99.90;;;;;;4964775;28;19925;-72
2023/10/19 01:55:44;;;;;;;;;;;9.60;99.90;;;;;;4965393;28;20354;-74
2023/10/19 01:58:10;;;;;;;;;;;9.60;99.90;;;;;;4963561;28;20320;-76
2023/10/19 02:00:37;;;;;;;;;;;9.60;99.90;;;;;;4961383;28;19914;-73
2023/10/19 02:03:08;;;;;;;;;;;9.60;99.90;;;;;;4964943;28;19927;-74
2023/10/19 02:05:41;;;;;;;;;;;9.60;99.90;;;;;;4963915;28;19914;-72
2023/10/19 02:08:07;;;;;;;;;;;9.60;99.90;;;;;;4963836;28;19914;-73
2023/10/19 02:10:33;;;;;;;;;;;9.60;99.90;;;;;;4966254;28;20514;-72
2023/10/19 02:12:59;;;;;;;;;;;9.60;99.90;;;;;;4962681;28;20273;-73
2023/10/19 02:15:24;;;;;;;;;;;9.60;99.90;;;;;;4967871;28;19910;-76
2023/10/19 02:17:50;;;;;;;;;;;9.50;99.90;;;;;;4963588;28;19909;-74
2023/10/19 02:20:17;;;;;;;;;;;9.60;99.90;;;;;;4965266;28;19910;-75
2023/10/19 02:22:43;;;;;;;;;;;9.60;99.90;;;;;;4947694;28;19918;-74
2023/10/19 02:25:10;;;;;;;;;;;9.60;99.90;;;;;;4958936;28;19914;-74
2023/10/19 02:27:36;;;;;;;;;;;9.50;99.90;;;;;;4963024;28;20024;-73
2023/10/19 02:30:03;;;;;;;;;;;9.50;99.90;;;;;;4963647;28;20010;-73
2023/10/19 02:32:29;;;;;;;;;;;9.50;99.90;;;;;;4965245;28;19918;-74
2023/10/19 02:34:55;;;;;;;;;;;9.40;99.90;;;;;;4963885;28;19914;-74
2023/10/19 02:37:21;;;;;;;;;;;9.30;99.90;;;;;;4963300;28;19917;-74
2023/10/19 02:39:46;;;;;;;;;;;9.30;99.90;;;;;;4965524;28;19914;-74
2023/10/19 02:42:12;;;;;;;;;;;9.30;99.90;;;;;;4963664;28;19969;-74
2023/10/19 02:44:38;;;;;;;;;;;9.30;99.90;;;;;;4960971;28;20281;-75
2023/10/19 02:47:08;;;;;;;;;;;9.30;99.90;;;;;;4967697;28;19911;-72
2023/10/19 02:49:39;;;;;;;;;;;9.30;99.90;;;;;;4965028;28;20010;-73
2023/10/19 02:52:05;;;;;;;;;;;9.30;99.90;;;;;;4962550;28;19914;-72
2023/10/19 02:54:32;;;;;;;;;;;9.20;99.90;;;;;;4966197;28;19914;-73
2023/10/19 02:56:58;;;;;;;;;;;9.10;99.90;;;;;;4959296;28;20000;-74
2023/10/19 02:59:25;;;;;;;;;;;9.10;99.90;;;;;;4962752;28;20669;-73
2023/10/19 03:01:54;;;;;;;;;;;9.20;99.90;;;;;;4968642;28;19924;-75
2023/10/19 03:04:20;;;;;;;;;;;9.20;99.90;;;;;;4964490;28;19925;-74
2023/10/19 03:06:45;;;;;;;;;;;9.20;99.90;;;;;;4962969;28;19937;-74
2023/10/19 03:09:15;;;;;;;;;;;9.30;99.90;;;;;;4963965;28;20415;-73
2023/10/19 03:11:42;;;;;;;;;;;9.30;99.90;;;;;;4963369;28;19910;-75
2023/10/19 03:14:11;;;;;;;;;;;9.20;99.90;;;;;;4944141;28;19930;-73
2023/10/19 03:16:38;;;;;;;;;;;9.30;99.90;;;;;;4963075;28;19950;-73
2023/10/19 03:19:07;;;;;;;;;;;9.20;99.90;;;;;;4950261;28;19914;-73
2023/10/19 03:21:41;;;;;;;;;;;9.20;99.90;;;;;;4964543;28;19914;-73
2023/10/19 03:24:12;;;;;;;;;;;9.20;99.90;;;;;;4961044;28;19973;-74
2023/10/19 03:26:40;;;;;;;;;;;9.20;99.90;;;;;;4962596;28;20279;-74
2023/10/19 03:29:12;;;;;;;;;;;9.20;99.90;;;;;;4964116;28;19910;-76
2023/10/19 03:31:43;;;;;;;;;;;9.20;99.90;;;;;;4965039;28;19918;-74
2023/10/19 03:34:13;;;;;;;;;;;9.30;99.90;;;;;;4960932;28;20620;-74
2023/10/19 03:36:39;;;;;;;;;;;9.30;99.90;;;;;;4964006;28;19922;-73
2023/10/19 03:39:14;;;;;;;;;;;9.30;99.90;;;;;;4962649;28;19929;-72
2023/10/19 03:41:44;;;;;;;;;;;9.30;99.90;;;;;;4962015;28;19977;-74
2023/10/19 03:44:19;;;;;;;;;;;9.30;99.90;;;;;;4960941;28;20285;-76
2023/10/19 03:46:57;;;;;;;;;;;9.40;99.90;;;;;;4963569;28;19926;-75
2023/10/19 03:49:30;;;;;;;;;;;9.30;99.90;;;;;;4962451;28;19910;-73
2023/10/19 03:52:02;;;;;;;;;;;9.30;99.90;;;;;;4959383;28;19910;-74
2023/10/19 03:54:28;;;;;;;;;;;9.30;99.90;;;;;;4957591;28;19945;-76
2023/10/19 03:56:55;;;;;;;;;;;9.40;99.90;;;;;;4960193;28;19914;-75
2023/10/19 03:59:21;;;;;;;;;;;9.40;99.90;;;;;;4960543;28;19914;-77
2023/10/19 04:01:46;;;;;;;;;;;9.40;99.90;;;;;;4966395;28;20277;-74
2023/10/19 04:04:13;;;;;;;;;;;9.40;99.90;;;;;;4957654;28;20433;-73
2023/10/19 04:06:40;;;;;;;;;;;9.40;99.90;;;;;;4968104;28;19914;-74
2023/10/19 04:09:06;;;;;;;;;;;9.30;99.90;;;;;;4966933;28;19914;-72
2023/10/19 04:11:48;;;;;;;;;;;9.30;99.90;;;;;;4966898;28;20354;-74
2023/10/19 04:14:15;;;;;;;;;;;9.30;99.90;;;;;;4965108;28;20009;-73
2023/10/19 04:16:43;;;;;;;;;;;9.30;99.90;;;;;;4949456;28;19914;-74
2023/10/19 04:19:13;;;;;;;;;;;9.30;99.90;;;;;;4966614;28;19914;-73
2023/10/19 04:21:39;;;;;;;;;;;9.40;99.90;;;;;;4966277;28;19982;-74
2023/10/19 04:24:09;;;;;;;;;;;9.40;99.90;;;;;;4968884;28;19990;-73
2023/10/19 04:26:37;;;;;;;;;;;9.40;99.90;;;;;;4965086;28;19934;-75
2023/10/19 04:29:17;;;;;;;;;;;9.40;99.90;;;;;;4966079;28;19910;-72
2023/10/19 04:31:49;;;;;;;;;;;9.40;99.90;;;;;;4972201;28;19921;-75
2023/10/19 04:34:16;;;;;;;;;;;9.30;99.90;;;;;;4963995;28;20521;-73
2023/10/19 04:36:42;;;;;;;;;;;9.40;99.90;;;;;;4965629;28;19921;-74
2023/10/19 04:39:12;;;;;;;;;;;9.30;99.90;;;;;;4967024;28;19918;-73
2023/10/19 04:41:37;;;;;;;;;;;9.30;99.90;;;;;;4969282;28;19953;-74
2023/10/19 04:44:03;;;;;;;;;;;9.30;99.90;;;;;;4970295;28;19946;-74
2023/10/19 04:46:29;;;;;;;;;;;9.30;99.90;;;;;;4965166;28;19922;-74
2023/10/19 04:48:54;;;;;;;;;;;9.40;99.90;;;;;;4970777;28;19910;-73
2023/10/19 04:51:20;;;;;;;;;;;9.40;99.90;;;;;;4969566;28;19936;-74
2023/10/19 04:53:46;;;;;;;;;;;9.50;99.90;;;;;;4969084;28;20029;-75
2023/10/19 04:56:12;;;;;;;;;;;9.40;99.90;;;;;;4966835;28;20000;-74
2023/10/19 04:58:38;;;;;;;;;;;9.40;99.90;;;;;;4970716;28;19929;-77
2023/10/19 05:01:05;;;;;;;;;;;9.50;99.90;;;;;;4969207;28;19937;-70
2023/10/19 05:03:30;;;;;;;;;;;9.60;99.90;;;;;;4968393;28;20331;-73
2023/10/19 05:05:56;;;;;;;;;;;9.70;99.90;;;;;;4966560;28;19922;-76
2023/10/19 05:08:25;;;;;;;;;;;9.80;99.90;;;;;;4966812;28;19918;-72
2023/10/19 05:10:54;;;;;;;;;;;9.70;99.90;;;;;;4963765;28;19921;-75
2023/10/19 05:13:23;;;;;;;;;;;9.70;99.90;;;;;;4965408;28;19914;-74
2023/10/19 05:15:49;;;;;;;;;;;9.70;99.90;;;;;;4965889;28;20773;-76
2023/10/19 05:18:14;;;;;;;;;;;9.70;99.90;;;;;;4971618;28;20025;-73
2023/10/19 05:20:40;;;;;;;;;;;9.80;99.90;;;;;;4967720;28;19964;-73
2023/10/19 05:23:06;;;;;;;;;;;9.80;99.90;;;;;;4964844;28;19917;-77
2023/10/19 05:25:32;;;;;;;;;;;9.80;99.90;;;;;;4965772;28;19921;-72
2023/10/19 05:27:59;;;;;;;;;;;9.90;99.90;;;;;;4959543;28;19914;-74
2023/10/19 05:30:25;;;;;;;;;;;9.90;99.90;;;;;;4964785;28;20037;-75
2023/10/19 05:32:50;;;;;;;;;;;9.90;99.90;;;;;;4968402;28;20363;-82
2023/10/19 05:35:22;;;;;;;;;;;10.00;99.90;;;;;;4972900;28;19929;-75
2023/10/19 05:37:49;;;;;;;;;;;9.90;99.90;;;;;;4962773;28;19914;-74
2023/10/19 05:40:15;;;;;;;;;;;9.90;99.90;;;;;;4965533;28;19914;-74
2023/10/19 05:42:40;;;;;;;;;;;10.00;99.90;;;;;;4959253;28;20009;-76
2023/10/19 05:45:06;;;;;;;;;;;10.00;99.90;;;;;;4965372;28;20326;-75
2023/10/19 05:47:31;;;;;;;;;;;10.00;99.90;;;;;;4968466;28;20562;-72
2023/10/19 05:49:57;;;;;;;;;;;10.10;99.90;;;;;;4968007;28;19924;-74
2023/10/19 05:52:22;;;;;;;;;;;10.10;99.90;;;;;;4964871;28;19954;-71
2023/10/19 05:54:49;;;;;;;;;;;10.10;99.90;;;;;;4965932;28;19910;-73
2023/10/19 05:57:15;;;;;;;;;;;10.10;99.90;;;;;;4966320;28;19909;-73
2023/10/19 05:59:40;;;;;;;;;;;10.10;99.90;;;;;;4966753;28;19925;-74
2023/10/19 06:02:07;;;;;;;;;;;10.20;99.90;;;;;;4963121;28;20289;-72
2023/10/19 06:04:33;;;;;;;;;;;10.20;99.90;;;;;;4965954;28;19913;-73
2023/10/19 06:06:58;;;;;;;;;;;10.30;99.90;;;;;;4964785;28;20290;-72
2023/10/19 06:09:29;;;;;;;;;;;10.20;99.90;;;;;;4966176;28;20017;-75
2023/10/19 06:11:55;;;;;;;;;;;10.20;99.90;;;;;;4959914;28;19910;-75
2023/10/19 06:14:20;;;;;;;;;;;10.20;99.90;;;;;;4964744;28;20012;-77
2023/10/19 06:16:46;;;;;;;;;;;10.30;99.90;;;;;;4966456;28;20356;-74
2023/10/19 06:19:12;;;;;;;;;;;10.40;99.90;;;;;;4962645;28;19917;-74
2023/10/19 06:21:37;;;;;;;;;;;10.50;99.90;;;;;;4964496;28;19957;-73
2023/10/19 06:24:03;;;;;;;;;;;10.50;99.90;;;;;;4961600;28;19914;-73
2023/10/19 06:26:29;;;;;;;;;;;10.50;99.90;;;;;;4960810;28;19936;-73
2023/10/19 06:28:59;;;;;;;;;;;10.60;99.90;;;;;;4964592;28;19911;-72
2023/10/19 06:31:25;;;;;;;;;;;10.60;99.90;;;;;;4964811;28;20428;-73
2023/10/19 06:33:51;;;;;;;;;;;10.60;99.90;;;;;;4963110;28;19953;-73
2023/10/19 06:36:18;;;;;;;;;;;10.70;99.90;;;;;;4967186;28;19913;-73
2023/10/19 06:38:44;;;;;;;;;;;10.70;99.90;;;;;;4964010;28;19922;-72
2023/10/19 06:41:13;;;;;;;;;;;10.80;99.90;;;;;;4966486;28;20381;-73
2023/10/19 06:43:39;;;;;;;;;;;10.70;99.90;;;;;;4960896;28;19917;-72
2023/10/19 06:46:05;;;;;;;;;;;10.60;99.90;;;;;;4965258;28;20313;-75
2023/10/19 06:48:32;;;;;;;;;;;10.70;99.90;;;;;;4966406;28;19914;-73
2023/10/19 06:50:57;;;;;;;;;;;10.70;99.90;;;;;;4955747;28;19914;-74
2023/10/19 06:53:23;;;;;;;;;;;10.80;99.90;;;;;;4964105;28;19945;-74
2023/10/19 06:55:49;;;;;;;;;;;10.80;99.90;;;;;;4960671;28;19914;-78
2023/10/19 06:58:15;;;;;;;;;;;10.80;99.90;;;;;;4964268;28;19921;-74
2023/10/19 07:00:44;;;;;;;;;;;10.80;99.90;;;;;;4961123;28;19917;-73
2023/10/19 07:03:10;;;;;;;;;;;10.80;99.90;;;;;;4966248;28;19915;-74
2023/10/19 07:05:36;;;;;;;;;;;10.80;99.90;;;;;;4968344;28;19956;-72
2023/10/19 07:08:03;;;;;;;;;;;10.80;99.90;;;;;;4963403;28;19914;-73
2023/10/19 07:10:28;;;;;;;;;;;10.90;99.90;;;;;;4965001;28;19937;-76
2023/10/19 07:12:54;;;;;;;;;;;10.90;99.90;;;;;;4960515;28;20963;-72
2023/10/19 07:15:22;;;;;;;;;;;11.00;99.90;;;;;;4966620;28;19997;-74
2023/10/19 07:17:48;;;;;;;;;;;11.20;99.90;;;;;;4965755;28;20377;-73
2023/10/19 07:20:28;;;;;;;;;;;11.20;99.90;;;;;;4962721;28;21014;-75
2023/10/19 07:22:56;;;;;;;;;;;11.20;99.90;;;;;;4956378;28;20027;-73
2023/10/19 07:25:22;;;;;;;;;;;11.30;99.90;;;;;;4962534;28;20710;-75
2023/10/19 07:27:49;;;;;;;;;;;11.40;99.90;;;;;;4963736;28;19917;-74
2023/10/19 07:30:16;;;;;;;;;;;11.50;99.90;;;;;;4961231;28;19933;-73
2023/10/19 07:32:42;;;;;;;;;;;11.50;99.90;;;;;;4966006;28;19921;-72
2023/10/19 07:35:08;;;;;;;;;;;11.60;99.90;;;;;;4968968;28;19914;-75
2023/10/19 07:37:34;;;;;;;;;;;11.60;99.90;;;;;;4963016;28;19922;-76
2023/10/19 07:39:59;;;;;;;;;;;11.60;99.90;;;;;;4969905;28;20404;-74
2023/10/19 07:42:25;;;;;;;;;;;11.70;99.90;;;;;;4968668;28;19997;-73
2023/10/19 07:44:51;;;;;;;;;;;11.70;99.90;;;;;;4967020;28;20488;-73
2023/10/19 07:47:16;;;;;;;;;;;11.80;99.90;;;;;;4971526;28;20099;-74
2023/10/19 07:49:43;;;;;;;;;;;11.90;99.90;;;;;;4973539;28;19911;-73
2023/10/19 07:52:10;;;;;;;;;;;11.90;99.90;;;;;;4966538;28;19914;-72
2023/10/19 07:54:37;;;;;;;;;;;12.00;99.90;;;;;;4969642;28;19922;-72
2023/10/19 07:57:05;;;;;;;;;;;12.00;99.90;;;;;;4968834;28;19921;-72
2023/10/19 07:59:32;;;;;;;;;;;11.80;99.90;;;;;;4969724;28;19910;-73
2023/10/19 08:01:58;;;;;;;;;;;11.70;99.90;;;;;;4974091;28;19911;-73
2023/10/19 08:04:25;;;;;;;;;;;11.50;99.90;;;;;;4967580;28;19917;-73
2023/10/19 08:06:50;;;;;;;;;;;11.50;99.90;;;;;;4970229;28;19961;-73
2023/10/19 08:09:22;;;;;;;;;;;11.70;99.90;;;;;;4970324;28;19914;-73
2023/10/19 08:11:48;;;;;;;;;;;11.90;99.90;;;;;;4967151;28;19918;-73
2023/10/19 08:14:14;;;;;;;;;;;11.80;99.90;;;;;;4970260;28;19928;-74
2023/10/19 08:16:41;;;;;;;;;;;11.80;99.90;;;;;;4972438;28;19911;-73
2023/10/19 08:19:07;;;;;;;;;;;11.80;99.90;;;;;;4969237;28;19910;-73
2023/10/19 08:21:34;;;;;;;;;;;11.70;99.90;;;;;;4968496;28;19910;-72
2023/10/19 08:24:04;;;;;;;;;;;11.70;99.90;;;;;;4967610;28;19937;-73
2023/10/19 08:26:30;;;;;;;;;;;11.80;99.90;;;;;;4960998;28;19914;-74
2023/10/19 08:28:57;;;;;;;;;;;12.00;99.90;;;;;;4968259;28;19914;-72
2023/10/19 08:31:24;;;;;;;;;;;12.10;99.90;;;;;;4971158;28;20317;-72
2023/10/19 08:33:50;;;;;;;;;;;12.10;99.90;;;;;;4959845;28;19914;-72
2023/10/19 08:36:18;;;;;;;;;;;12.10;99.90;;;;;;4971805;28;20600;-72
2023/10/19 08:38:43;;;;;;;;;;;12.00;99.90;;;;;;4966873;28;19918;-72
2023/10/19 08:41:09;;;;;;;;;;;12.10;99.90;;;;;;4965536;28;19990;-72
2023/10/19 08:43:36;;;;;;;;;;;12.20;99.90;;;;;;4969704;28;19969;-72
2023/10/19 08:46:05;;;;;;;;;;;12.40;99.90;;;;;;4971930;28;19922;-72
2023/10/19 08:48:35;;;;;;;;;;;12.40;99.90;;;;;;4971018;28;19910;-72
2023/10/19 08:51:02;;;;;;;;;;;12.50;99.90;;;;;;4962826;28;19921;-72
2023/10/19 08:53:28;;;;;;;;;;;12.60;99.90;;;;;;4962846;28;19933;-72
2023/10/19 08:55:55;;;;;;;;;;;12.70;99.90;;;;;;4961158;28;19914;-72
2023/10/19 08:58:22;;;;;;;;;;;12.80;99.90;;;;;;4965686;28;20007;-72
2023/10/19 09:00:48;;;;;;;;;;;12.80;99.90;;;;;;4960204;28;19921;-72
2023/10/19 09:03:16;;;;;;;;;;;12.80;99.90;;;;;;4967943;28;19924;-72
2023/10/19 09:05:41;;;;;;;;;;;12.60;99.90;;;;;;4963312;28;19929;-71
2023/10/19 09:08:09;;;;;;;;;;;12.60;99.90;;;;;;4965424;28;19922;-74
2023/10/19 09:10:36;;;;;;;;;;;12.50;99.90;;;;;;4967579;28;19921;-72
2023/10/19 09:13:02;;;;;;;;;;;12.40;99.90;;;;;;4962417;28;19931;-71
2023/10/19 09:15:32;;;;;;;;;;;12.30;99.90;;;;;;4966228;28;19914;-71
2023/10/19 09:17:58;;;;;;;;;;;12.30;99.90;;;;;;4964186;28;19905;-71
2023/10/19 09:20:29;;;;;;;;;;;12.30;99.90;;;;;;4964688;28;20024;-71
2023/10/19 09:22:57;;;;;;;;;;;12.40;99.90;;;;;;4964226;28;19910;-71
2023/10/19 09:25:23;;;;;;;;;;;12.60;99.90;;;;;;4965824;28;19910;-70
2023/10/19 09:27:49;;;;;;;;;;;12.70;99.90;;;;;;4963769;28;19917;-72
2023/10/19 09:30:19;;;;;;;;;;;12.70;99.90;;;;;;4959928;28;20357;-70
2023/10/19 09:32:48;;;;;;;;;;;12.60;99.90;;;;;;4967907;28;19920;-71
2023/10/19 09:35:15;;;;;;;;;;;12.60;99.90;;;;;;4964439;28;20940;-71
2023/10/19 09:37:44;;;;;;;;;;;12.70;99.90;;;;;;4963318;28;19914;-73
2023/10/19 09:40:12;;;;;;;;;;;12.80;99.90;;;;;;4967540;28;19914;-73
2023/10/19 09:42:46;;;;;;;;;;;12.90;99.90;;;;;;4962373;28;19921;-72
2023/10/19 09:45:11;;;;;;;;;;;13.10;99.90;;;;;;4966412;28;19929;-73
2023/10/19 09:47:42;;;;;;;;;;;13.10;99.90;;;;;;4962992;28;19910;-71
2023/10/19 09:50:07;;;;;;;;;;;13.30;99.90;;;;;;4966697;28;20277;-73
2023/10/19 09:52:33;;;;;;;;;;;13.50;99.90;;;;;;4964519;28;19910;-71
2023/10/19 09:55:04;;;;;;;;;;;13.60;99.90;;;;;;4962382;28;20432;-71
2023/10/19 09:57:42;;;;;;;;;;;13.70;99.90;;;;;;4961083;28;19968;-74
2023/10/19 10:00:13;;;;;;;;;;;13.80;99.90;;;;;;4967024;28;20436;-72
2023/10/19 10:02:41;;;;;;;;;;;13.80;99.90;;;;;;4967147;28;20369;-72
2023/10/19 10:05:26;;;;;;;;;;;13.80;99.90;;;;;;4963638;28;20257;-72
2023/10/19 10:08:10;;;;;;;;;;;13.90;99.90;;;;;;4963827;28;20345;-73
2023/10/19 10:10:37;;;;;;;;;;;14.10;99.90;;;;;;4968405;28;19993;-74
2023/10/19 10:13:21;;;;;;;;;;;14.30;99.90;;;;;;4966490;28;19914;-73
2023/10/19 10:15:47;;;;;;;;;;;14.40;99.90;;;;;;4966783;28;19910;-73
2023/10/19 10:18:15;;;;;;;;;;;14.50;99.90;;;;;;4964278;28;19926;-73
2023/10/19 10:20:41;;;;;;;;;;;14.60;99.90;;;;;;4964676;28;20313;-72
2023/10/19 10:23:21;;;;;;;;;;;14.50;99.90;;;;;;4961893;28;19996;-71
2023/10/19 10:25:53;;;;;;;;;;;14.40;99.90;;;;;;4963947;28;19914;-72
2023/10/19 10:28:19;;;;;;;;;;;14.30;99.90;;;;;;4965028;28;19964;-72
2023/10/19 10:31:03;;;;;;;;;;;14.40;99.90;;;;;;4960035;28;19917;-72
2023/10/19 10:33:42;;;;;;;;;;;14.40;99.90;;;;;;4965548;28;19969;-71
2023/10/19 10:36:08;;;;;;;;;;;14.50;99.90;;;;;;4963787;28;19918;-70
2023/10/19 10:38:35;;;;;;;;;;;14.30;99.90;;;;;;4963299;28;19945;-71
2023/10/19 10:41:01;;;;;;;;;;;14.20;99.90;;;;;;4962519;28;19969;-71
2023/10/19 10:43:27;;;;;;;;;;;14.30;99.90;;;;;;4958579;28;21000;-72
2023/10/19 10:46:02;;;;;;;;;;;13.90;99.90;;;;;;4964958;28;20021;-74
2023/10/19 10:48:28;;;;;;;;;;;13.80;99.90;;;;;;4964603;28;19949;-74
2023/10/19 10:50:53;;;;;;;;;;;13.70;99.90;;;;;;4962833;28;19914;-70
2023/10/19 10:53:19;;;;;;;;;;;13.70;99.90;;;;;;4960373;28;20469;-70
2023/10/19 10:55:45;;;;;;;;;;;13.90;99.90;;;;;;4963213;28;20404;-71
2023/10/19 10:58:17;;;;;;;;;;;14.00;99.90;;;;;;4963142;28;19914;-70
2023/10/19 11:00:44;;;;;;;;;;;14.10;99.90;;;;;;4962328;28;21506;-70
2023/10/19 11:03:10;;;;;;;;;;;14.50;99.90;;;;;;4949282;28;19914;-71
2023/10/19 11:05:36;;;;;;;;;;;15.00;99.90;;;;;;4965529;28;20470;-71
2023/10/19 11:08:06;;;;;;;;;;;15.50;99.90;;;;;;4960914;28;19914;-71
2023/10/19 11:10:31;;;;;;;;;;;15.90;99.90;;;;;;4966883;28;19962;-71
2023/10/19 11:13:03;;;;;;;;;;;16.20;99.90;;;;;;4958263;28;20359;-71
2023/10/19 11:15:29;;;;;;;;;;;16.20;99.90;;;;;;4962338;28;20285;-71
2023/10/19 11:17:55;;;;;;;;;;;16.50;99.90;;;;;;4966288;28;19913;-71
2023/10/19 11:20:22;;;;;;;;;;;16.60;99.90;;;;;;4958326;28;19981;-71
2023/10/19 11:22:48;;;;;;;;;;;16.50;99.90;;;;;;4962866;28;20417;-71
2023/10/19 11:25:18;;;;;;;;;;;16.00;99.90;;;;;;4958416;28;20333;-71
2023/10/19 11:27:43;;;;;;;;;;;15.50;99.90;;;;;;4963415;28;19925;-71
2023/10/19 11:30:11;;;;;;;;;;;15.30;99.90;;;;;;4964261;28;19910;-70
2023/10/19 11:32:40;;;;;;;;;;;15.40;99.90;;;;;;4963215;28;19920;-71
2023/10/19 11:35:12;;;;;;;;;;;15.20;99.90;;;;;;4965545;28;19914;-70
2023/10/19 11:37:47;;;;;;;;;;;15.10;99.90;;;;;;4958398;28;19914;-70
2023/10/19 11:40:13;;;;;;;;;;;14.80;99.90;;;;;;4966634;28;20080;-71
2023/10/19 11:42:40;;;;;;;;;;;15.10;99.90;;;;;;4960223;28;20310;-70
2023/10/19 11:45:06;;;;;;;;;;;15.40;99.90;;;;;;4967467;28;19918;-71
2023/10/19 11:47:32;;;;;;;;;;;16.00;99.90;;;;;;4964295;28;19910;-71
2023/10/19 11:49:57;;;;;;;;;;;16.50;99.90;;;;;;4961714;28;20178;-71
2023/10/19 11:52:23;;;;;;;;;;;16.80;99.90;;;;;;4962733;28;19910;-71
2023/10/19 11:54:48;;;;;;;;;;;16.10;99.90;;;;;;4960606;28;19922;-72
2023/10/19 11:57:14;;;;;;;;;;;15.80;99.90;;;;;;4960021;28;19925;-71
2023/10/19 11:59:40;;;;;;;;;;;15.90;99.90;;;;;;4958835;28;19930;-71
2023/10/19 12:02:06;;;;;;;;;;;16.00;99.90;;;;;;4963808;28;20412;-70
2023/10/19 12:04:36;;;;;;;;;;;16.10;99.90;;;;;;4963111;28;19971;-71
2023/10/19 12:07:03;;;;;;;;;;;15.70;99.90;;;;;;4962694;28;20049;-64
2023/10/19 12:09:29;;;;;;;;;;;15.40;99.90;;;;;;4959702;28;20707;-64
2023/10/19 12:11:55;;;;;;;;;;;15.20;99.90;;;;;;4958150;28;19917;-63
2023/10/19 12:14:22;;;;;;;;;;;15.20;99.90;;;;;;4964795;28;19922;-64
2023/10/19 12:16:48;;;;;;;;;;;15.10;99.90;;;;;;4959941;28;20055;-64
2023/10/19 12:19:14;;;;;;;;;;;15.10;99.90;;;;;;4963527;28;19957;-64
2023/10/19 12:21:41;;;;;;;;;;;15.20;99.90;;;;;;4958292;28;19936;-71
2023/10/19 12:24:07;;;;;;;;;;;15.50;99.90;;;;;;4962392;28;19914;-72
2023/10/19 12:26:33;;;;;;;;;;;15.80;99.90;;;;;;4966774;28;19914;-72
2023/10/19 12:28:59;;;;;;;;;;;15.80;99.90;;;;;;4962971;28;19968;-72
2023/10/19 12:31:25;;;;;;;;;;;15.70;99.90;;;;;;4968160;28;20395;-70
2023/10/19 12:33:50;;;;;;;;;;;15.50;99.90;;;;;;4962479;28;19914;-71
2023/10/19 12:38:47;;;;;;;;;;;15.10;99.90;;;;;;4967022;28;19929;-73
2023/10/19 12:41:14;;;;;;;;;;;15.20;99.90;;;;;;4961402;28;19941;-72
2023/10/19 12:43:39;;;;;;;;;;;15.30;99.90;;;;;;4965751;28;19914;-73
2023/10/19 12:46:08;;;;;;;;;;;15.50;99.90;;;;;;4969666;28;19922;-72
2023/10/19 12:48:34;;;;;;;;;;;15.50;99.90;;;;;;4968410;28;19944;-71
2023/10/19 12:51:11;;;;;;;;;;;15.40;99.90;;;;;;4967366;28;20380;-72
2023/10/19 12:53:38;;;;;;;;;;;15.40;99.90;;;;;;4964982;28;20018;-73
2023/10/19 12:56:04;;;;;;;;;;;15.20;99.90;;;;;;4948179;28;20354;-72
2023/10/19 12:58:30;;;;;;;;;;;15.30;99.90;;;;;;4964641;28;19960;-71
2023/10/19 13:00:56;;;;;;;;;;;15.30;99.90;;;;;;4965763;28;20037;-76
2023/10/19 13:03:23;;;;;;;;;;;15.40;99.90;;;;;;4968607;28;19918;-72
2023/10/19 13:05:49;;;;;;;;;;;15.60;99.90;;;;;;4964621;28;19918;-73
2023/10/19 13:08:15;;;;;;;;;;;15.40;99.90;;;;;;4966365;28;19914;-72
2023/10/19 13:10:42;;;;;;;;;;;15.40;99.90;;;;;;4963255;28;20361;-68
2023/10/19 13:13:11;;;;;;;;;;;15.40;99.90;;;;;;4962903;28;19921;-68
2023/10/19 13:15:37;;;;;;;;;;;15.80;99.90;;;;;;4965900;28;19941;-67
2023/10/19 13:18:05;;;;;;;;;;;16.20;99.90;;;;;;4966737;28;20012;-69
2023/10/19 13:20:34;;;;;;;;;;;16.60;99.90;;;;;;4963813;28;20015;-72
2023/10/19 13:23:11;;;;;;;;;;;17.00;99.90;;;;;;4957257;28;19910;-74
2023/10/19 13:28:18;;;;;;;;;;;17.10;99.90;;;;;;4965526;28;19942;-72
2023/10/19 13:30:50;;;;;;;;;;;16.80;99.90;;;;;;4957920;28;20288;-70
2023/10/19 13:33:17;;;;;;;;;;;16.80;99.90;;;;;;4966988;28;20392;-69
2023/10/19 13:35:43;;;;;;;;;;;16.60;99.90;;;;;;4964493;28;19915;-69
2023/10/19 13:38:09;;;;;;;;;;;16.50;99.90;;;;;;4963231;28;19921;-69
2023/10/19 13:40:36;;;;;;;;;;;16.40;99.90;;;;;;4965790;28;19953;-69
2023/10/19 13:43:04;;;;;;;;;;;16.40;99.90;;;;;;4960802;28;20397;-69
2023/10/19 13:45:31;;;;;;;;;;;16.20;99.90;;;;;;4963559;28;20873;-69
2023/10/19 13:47:58;;;;;;;;;;;16.00;99.90;;;;;;4968257;28;19957;-69
2023/10/19 13:50:24;;;;;;;;;;;15.90;99.90;;;;;;4959633;28;19929;-69
2023/10/19 13:52:50;;;;;;;;;;;15.90;99.90;;;;;;4964489;28;20257;-69
2023/10/19 13:55:18;;;;;;;;;;;15.90;99.90;;;;;;4959534;28;19945;-68
2023/10/19 13:57:45;;;;;;;;;;;15.80;99.90;;;;;;4965438;28;19981;-68
2023/10/19 14:00:11;;;;;;;;;;;15.80;99.90;;;;;;4963081;28;20380;-68
2023/10/19 14:02:37;;;;;;;;;;;15.90;99.90;;;;;;4966647;28;19920;-69
2023/10/19 14:05:04;;;;;;;;;;;15.70;99.90;;;;;;4965136;28;20452;-68
2023/10/19 14:07:31;;;;;;;;;;;15.60;99.90;;;;;;4963913;28;19929;-69
2023/10/19 14:09:56;;;;;;;;;;;15.60;99.90;;;;;;4966349;28;19927;-69
2023/10/19 14:12:22;;;;;;;;;;;15.50;99.90;;;;;;4956547;28;19918;-69
2023/10/19 14:14:48;;;;;;;;;;;15.30;99.90;;;;;;4964389;28;19961;-69
2023/10/19 14:17:13;;;;;;;;;;;15.30;99.90;;;;;;4965209;28;19917;-69
2023/10/19 14:19:44;;;;;;;;;;;15.30;99.90;;;;;;4963982;28;19933;-69
2023/10/19 14:22:10;;;;;;;;;;;15.40;99.90;;;;;;4964177;28;20346;-69
2023/10/19 14:24:35;;;;;;;;;;;15.60;99.90;;;;;;4962512;28;20001;-69
2023/10/19 14:27:02;;;;;;;;;;;15.70;99.90;;;;;;4956909;28;19914;-68
2023/10/19 14:29:27;;;;;;;;;;;15.70;99.90;;;;;;4960496;28;19913;-68
2023/10/19 14:31:53;;;;;;;;;;;15.70;99.90;;;;;;4965894;28;19914;-62
2023/10/19 14:34:18;;;;;;;;;;;15.80;99.90;;;;;;4966326;28;20028;-63
2023/10/19 14:36:44;;;;;;;;;;;15.90;99.90;;;;;;4963388;28;20010;-62
2023/10/19 14:39:14;;;;;;;;;;;16.00;99.90;;;;;;4961265;28;19952;-68
2023/10/19 14:41:40;;;;;;;;;;;16.10;99.90;;;;;;4945385;28;19961;-69
2023/10/19 14:44:06;;;;;;;;;;;16.20;99.90;;;;;;4965211;28;20001;-69